Champion III — HO7207 — position and weather

sailwx.info

Track history (hours):
 
Tides and Currents Weather Stations Pressure Air Temp Water Temp Dewpoint Dewpoint Depression Visibility Wind Speed Wind Dir Waves Ship Positions

Champion III

Last reported at 2018-Feb-18 17:14 UTC. Time now 2018-Feb-24 00:56 UTC.
Position N 26°46' W 080°02'.

Length 54 m; draft 2.1 m.

Type: Cargo ship. MMSI: 351468000.

Date/timePositionNaut miles runAvg speedWind from/ knotsBaromVisibWave heightAir tempDewpointWater temp
2018-Feb-18 17:14N 26°46' W 080°02'1 0.1
2018-Feb-18 08:57N 26°46' W 080°03'23 1.3
2018-Feb-17 15:53N 26°28' W 079°47'411.2
2018-Feb-17 15:30N 26°25' W 079°44'611.3
2018-Feb-17 14:59N 26°20' W 079°41'511.4
2018-Feb-17 14:30N 26°16' W 079°37'611.2
2018-Feb-17 14:00N 26°11' W 079°34'511.0
2018-Feb-17 13:30N 26°06' W 079°31'  
2018-Feb-13 05:19N 24°14' W 076°27'3 9.0
2018-Feb-13 04:59N 24°12' W 076°25'4 8.8
2018-Feb-13 04:30N 24°09' W 076°22'4 9.0
2018-Feb-13 04:00N 24°06' W 076°19'4 8.8
2018-Feb-13 03:30N 24°02' W 076°16'4 8.9
2018-Feb-13 03:00N 23°59' W 076°12'4 8.9
2018-Feb-13 02:30N 23°56' W 076°09'4 8.9
2018-Feb-13 02:00N 23°52' W 076°06'4 8.6
2018-Feb-13 01:30N 23°49' W 076°03'4 8.8
2018-Feb-13 01:00N 23°46' W 075°59'7 0.4
2018-Feb-12 07:51N 23°41' W 075°55'2 4.4
2018-Feb-12 07:29N 23°42' W 075°56'2 4.6
2018-Feb-12 07:00N 23°44' W 075°58'2 4.4
2018-Feb-12 06:30N 23°45' W 075°59'2 4.5
2018-Feb-12 06:00N 23°47' W 076°01'2 4.6
2018-Feb-12 05:30N 23°48' W 076°03'2 4.6
2018-Feb-12 05:00N 23°50' W 076°05'2 4.9
2018-Feb-12 04:30N 23°52' W 076°06'2 4.9
2018-Feb-12 04:00N 23°53' W 076°08'2 4.9
2018-Feb-12 03:30N 23°55' W 076°10'3 5.2
2018-Feb-12 03:00N 23°57' W 076°12'3 5.0
2018-Feb-12 02:29N 23°59' W 076°14'2 4.9
2018-Feb-12 02:00N 24°01' W 076°16'2 5.0
2018-Feb-12 01:30N 24°02' W 076°18'3 5.1
2018-Feb-12 01:00N 24°04' W 076°20'2 5.0
2018-Feb-12 00:30N 24°06' W 076°22'3 5.2
2018-Feb-12 00:00N 24°07' W 076°24'2 4.7
2018-Feb-11 23:30N 24°07' W 076°27'  
Track history (hours):
 
Tides and Currents Weather Stations Pressure Air Temp Water Temp Dewpoint Dewpoint Depression Visibility Wind Speed Wind Dir Waves Ship Positions

Champion III

Last reported at 2018-Feb-18 17:14 UTC. Time now 2018-Feb-24 00:56 UTC.
Position N 26°46' W 080°02'.

Length 54 m; draft 2.1 m.

Type: Cargo ship. MMSI: 351468000.

Date/timePositionNaut miles runAvg speedWind from/ knotsBaromVisibWave heightAir tempDewpointWater temp
2018-Feb-18 17:14N 26°46' W 080°02'1 0.1
2018-Feb-18 08:57N 26°46' W 080°03'23 1.3
2018-Feb-17 15:53N 26°28' W 079°47'411.2
2018-Feb-17 15:30N 26°25' W 079°44'611.3
2018-Feb-17 14:59N 26°20' W 079°41'511.4
2018-Feb-17 14:30N 26°16' W 079°37'611.2
2018-Feb-17 14:00N 26°11' W 079°34'511.0
2018-Feb-17 13:30N 26°06' W 079°31'  
2018-Feb-13 05:19N 24°14' W 076°27'3 9.0
2018-Feb-13 04:59N 24°12' W 076°25'4 8.8
2018-Feb-13 04:30N 24°09' W 076°22'4 9.0
2018-Feb-13 04:00N 24°06' W 076°19'4 8.8
2018-Feb-13 03:30N 24°02' W 076°16'4 8.9
2018-Feb-13 03:00N 23°59' W 076°12'4 8.9
2018-Feb-13 02:30N 23°56' W 076°09'4 8.9
2018-Feb-13 02:00N 23°52' W 076°06'4 8.6
2018-Feb-13 01:30N 23°49' W 076°03'4 8.8
2018-Feb-13 01:00N 23°46' W 075°59'7 0.4
2018-Feb-12 07:51N 23°41' W 075°55'2 4.4
2018-Feb-12 07:29N 23°42' W 075°56'2 4.6
2018-Feb-12 07:00N 23°44' W 075°58'2 4.4
2018-Feb-12 06:30N 23°45' W 075°59'2 4.5
2018-Feb-12 06:00N 23°47' W 076°01'2 4.6
2018-Feb-12 05:30N 23°48' W 076°03'2 4.6
2018-Feb-12 05:00N 23°50' W 076°05'2 4.9
2018-Feb-12 04:30N 23°52' W 076°06'2 4.9
2018-Feb-12 04:00N 23°53' W 076°08'2 4.9
2018-Feb-12 03:30N 23°55' W 076°10'3 5.2
2018-Feb-12 03:00N 23°57' W 076°12'3 5.0
2018-Feb-12 02:29N 23°59' W 076°14'2 4.9
2018-Feb-12 02:00N 24°01' W 076°16'2 5.0
2018-Feb-12 01:30N 24°02' W 076°18'3 5.1
2018-Feb-12 01:00N 24°04' W 076°20'2 5.0
2018-Feb-12 00:30N 24°06' W 076°22'3 5.2
2018-Feb-12 00:00N 24°07' W 076°24'2 4.7
2018-Feb-11 23:30N 24°07' W 076°27'  

Dump ship's entire track history